sensor_id;sensor_type;location;lat;lon;timestamp;pressure;altitude;pressure_sealevel;temperature;humidity
39699;BME280;25372;50.582;12.250;2023-06-01T00:09:28;100139.84;;;11.27;72.17
39699;BME280;25372;50.582;12.250;2023-06-01T00:19:50;100136.94;;;11.17;73.08
39699;BME280;25372;50.582;12.250;2023-06-01T00:30:13;100128.69;;;10.80;75.24
39699;BME280;25372;50.582;12.250;2023-06-01T00:40:35;100130.63;;;10.62;73.86
39699;BME280;25372;50.582;12.250;2023-06-01T00:50:56;100128.56;;;10.37;77.48
39699;BME280;25372;50.582;12.250;2023-06-01T01:01:20;100124.56;;;10.15;78.72
39699;BME280;25372;50.582;12.250;2023-06-01T01:11:48;100124.31;;;10.34;77.96
39699;BME280;25372;50.582;12.250;2023-06-01T01:22:24;100127.97;;;10.31;76.47
39699;BME280;25372;50.582;12.250;2023-06-01T01:32:48;100130.84;;;9.96;77.82
39699;BME280;25372;50.582;12.250;2023-06-01T01:43:10;100129.31;;;10.08;77.89
39699;BME280;25372;50.582;12.250;2023-06-01T01:53:32;100120.06;;;10.47;72.38
39699;BME280;25372;50.582;12.250;2023-06-01T02:03:59;100106.38;;;10.42;72.56
39699;BME280;25372;50.582;12.250;2023-06-01T02:14:22;100100.03;;;10.30;72.58
39699;BME280;25372;50.582;12.250;2023-06-01T02:24:43;100106.50;;;10.08;73.45
39699;BME280;25372;50.582;12.250;2023-06-01T02:35:06;100090.50;;;9.67;79.25
39699;BME280;25372;50.582;12.250;2023-06-01T02:45:28;100084.38;;;9.82;77.66
39699;BME280;25372;50.582;12.250;2023-06-01T02:55:51;100073.16;;;9.80;72.51
39699;BME280;25372;50.582;12.250;2023-06-01T03:06:35;100080.59;;;9.56;74.06
39699;BME280;25372;50.582;12.250;2023-06-01T03:17:01;100086.66;;;10.04;76.31
39699;BME280;25372;50.582;12.250;2023-06-01T03:27:22;100083.84;;;10.07;76.42
39699;BME280;25372;50.582;12.250;2023-06-01T03:37:45;100096.88;;;10.09;79.36
39699;BME280;25372;50.582;12.250;2023-06-01T03:48:09;100093.34;;;10.55;75.69
39699;BME280;25372;50.582;12.250;2023-06-01T03:58:31;100094.41;;;10.67;75.77
39699;BME280;25372;50.582;12.250;2023-06-01T04:08:52;100085.81;;;11.09;78.46
39699;BME280;25372;50.582;12.250;2023-06-01T04:19:19;100082.81;;;11.57;74.36
39699;BME280;25372;50.582;12.250;2023-06-01T04:29:49;100102.31;;;11.95;71.07
39699;BME280;25372;50.582;12.250;2023-06-01T04:40:12;100098.13;;;12.45;69.35
39699;BME280;25372;50.582;12.250;2023-06-01T04:50:33;100087.88;;;14.29;65.14
39699;BME280;25372;50.582;12.250;2023-06-01T05:00:56;100080.66;;;17.68;53.52
39699;BME280;25372;50.582;12.250;2023-06-01T05:11:17;100066.78;;;16.20;56.19
39699;BME280;25372;50.582;12.250;2023-06-01T05:21:41;100059.31;;;21.10;44.46
39699;BME280;25372;50.582;12.250;2023-06-01T05:32:02;100068.53;;;22.09;44.60
39699;BME280;25372;50.582;12.250;2023-06-01T05:42:25;100068.00;;;25.12;36.91
39699;BME280;25372;50.582;12.250;2023-06-01T05:52:46;100069.44;;;23.31;39.40
39699;BME280;25372;50.582;12.250;2023-06-01T06:03:08;100074.53;;;22.11;41.72
39699;BME280;25372;50.582;12.250;2023-06-01T06:13:28;100055.19;;;19.66;48.64
39699;BME280;25372;50.582;12.250;2023-06-01T06:23:50;100059.16;;;18.10;53.60
39699;BME280;25372;50.582;12.250;2023-06-01T06:34:12;100059.56;;;17.76;51.92
39699;BME280;25372;50.582;12.250;2023-06-01T06:44:34;100058.00;;;17.64;52.77
39699;BME280;25372;50.582;12.250;2023-06-01T06:54:55;100057.75;;;17.67;54.45
39699;BME280;25372;50.582;12.250;2023-06-01T07:05:17;100058.03;;;17.93;54.66
39699;BME280;25372;50.582;12.250;2023-06-01T07:15:38;100052.69;;;17.54;57.12
39699;BME280;25372;50.582;12.250;2023-06-01T07:26:00;100045.38;;;17.16;56.70
39699;BME280;25372;50.582;12.250;2023-06-01T07:36:22;100038.19;;;18.07;55.98
39699;BME280;25372;50.582;12.250;2023-06-01T07:46:45;100033.69;;;18.17;54.13
39699;BME280;25372;50.582;12.250;2023-06-01T07:57:06;100032.03;;;18.64;53.87
39699;BME280;25372;50.582;12.250;2023-06-01T08:07:29;100017.78;;;19.21;53.74
39699;BME280;25372;50.582;12.250;2023-06-01T08:17:49;100018.25;;;19.35;49.72
39699;BME280;25372;50.582;12.250;2023-06-01T08:28:12;100004.47;;;19.76;50.32
39699;BME280;25372;50.582;12.250;2023-06-01T08:38:33;99997.56;;;20.62;47.74
39699;BME280;25372;50.582;12.250;2023-06-01T08:48:56;99987.47;;;23.45;43.13
39699;BME280;25372;50.582;12.250;2023-06-01T08:59:17;99972.31;;;24.89;41.74
39699;BME280;25372;50.582;12.250;2023-06-01T09:09:42;99974.06;;;26.48;38.44
39699;BME280;25372;50.582;12.250;2023-06-01T09:20:03;99954.50;;;25.47;36.30
39699;BME280;25372;50.582;12.250;2023-06-01T09:30:38;99958.25;;;25.09;39.33
39699;BME280;25372;50.582;12.250;2023-06-01T09:41:01;99955.50;;;22.57;43.63
39699;BME280;25372;50.582;12.250;2023-06-01T09:51:25;99951.81;;;22.41;45.19
39699;BME280;25372;50.582;12.250;2023-06-01T10:01:50;99949.66;;;22.37;42.06
39699;BME280;25372;50.582;12.250;2023-06-01T10:12:13;99937.41;;;22.02;43.94
39699;BME280;25372;50.582;12.250;2023-06-01T10:22:35;99940.25;;;21.92;43.45
39699;BME280;25372;50.582;12.250;2023-06-01T10:32:57;99931.19;;;22.18;44.75
39699;BME280;25372;50.582;12.250;2023-06-01T10:43:40;99913.81;;;22.94;47.46
39699;BME280;25372;50.582;12.250;2023-06-01T10:54:27;99917.16;;;22.16;42.98
39699;BME280;25372;50.582;12.250;2023-06-01T11:04:48;99900.25;;;22.24;44.21
39699;BME280;25372;50.582;12.250;2023-06-01T11:15:12;99898.97;;;22.03;44.70
39699;BME280;25372;50.582;12.250;2023-06-01T11:25:34;99890.13;;;22.51;43.97
39699;BME280;25372;50.582;12.250;2023-06-01T11:35:58;99885.25;;;22.86;42.43
39699;BME280;25372;50.582;12.250;2023-06-01T11:46:19;99867.00;;;22.58;42.02
39699;BME280;25372;50.582;12.250;2023-06-01T11:56:42;99850.69;;;23.00;41.32
39699;BME280;25372;50.582;12.250;2023-06-01T12:07:04;99849.91;;;23.38;38.95
39699;BME280;25372;50.582;12.250;2023-06-01T12:17:45;99841.88;;;23.14;38.86
39699;BME280;25372;50.582;12.250;2023-06-01T12:28:07;99835.59;;;23.22;37.82
39699;BME280;25372;50.582;12.250;2023-06-01T12:38:35;99824.88;;;23.07;36.67
39699;BME280;25372;50.582;12.250;2023-06-01T12:49:11;99821.03;;;23.25;38.17
39699;BME280;25372;50.582;12.250;2023-06-01T12:59:33;99816.69;;;23.24;37.76
39699;BME280;25372;50.582;12.250;2023-06-01T13:09:54;99810.22;;;23.86;37.47
39699;BME280;25372;50.582;12.250;2023-06-01T13:20:18;99792.19;;;24.47;37.85
39699;BME280;25372;50.582;12.250;2023-06-01T13:30:39;99799.97;;;24.79;36.77
39699;BME280;25372;50.582;12.250;2023-06-01T13:41:02;99790.44;;;25.26;34.42
39699;BME280;25372;50.582;12.250;2023-06-01T13:51:22;99785.41;;;25.74;35.33
39699;BME280;25372;50.582;12.250;2023-06-01T14:01:45;99778.38;;;25.73;34.05
39699;BME280;25372;50.582;12.250;2023-06-01T14:12:06;99766.56;;;26.22;33.47
39699;BME280;25372;50.582;12.250;2023-06-01T14:22:28;99768.69;;;25.50;32.06
39699;BME280;25372;50.582;12.250;2023-06-01T14:32:49;99752.13;;;26.44;26.65
39699;BME280;25372;50.582;12.250;2023-06-01T14:43:11;99749.22;;;26.25;28.09
39699;BME280;25372;50.582;12.250;2023-06-01T14:53:32;99759.38;;;26.30;29.09
39699;BME280;25372;50.582;12.250;2023-06-01T15:03:54;99748.25;;;26.73;27.94
39699;BME280;25372;50.582;12.250;2023-06-01T15:14:20;99727.78;;;25.96;26.65
39699;BME280;25372;50.582;12.250;2023-06-01T15:24:42;99723.44;;;24.24;29.89
39699;BME280;25372;50.582;12.250;2023-06-01T15:35:03;99728.50;;;24.12;32.43
39699;BME280;25372;50.582;12.250;2023-06-01T15:45:26;99720.38;;;23.91;32.10
39699;BME280;25372;50.582;12.250;2023-06-01T15:55:46;99710.03;;;23.12;35.49
39699;BME280;25372;50.582;12.250;2023-06-01T16:06:08;99705.31;;;23.14;35.43
39699;BME280;25372;50.582;12.250;2023-06-01T16:16:29;99702.72;;;22.91;36.73
39699;BME280;25372;50.582;12.250;2023-06-01T16:26:53;99695.13;;;22.80;39.65
39699;BME280;25372;50.582;12.250;2023-06-01T16:37:14;99692.41;;;22.41;34.39
39699;BME280;25372;50.582;12.250;2023-06-01T16:47:36;99680.63;;;22.27;37.28
39699;BME280;25372;50.582;12.250;2023-06-01T16:57:57;99678.84;;;22.19;34.84
39699;BME280;25372;50.582;12.250;2023-06-01T17:08:19;99675.25;;;21.81;36.53
39699;BME280;25372;50.582;12.250;2023-06-01T17:18:39;99667.69;;;21.92;37.12
39699;BME280;25372;50.582;12.250;2023-06-01T17:29:02;99672.44;;;21.74;38.10
39699;BME280;25372;50.582;12.250;2023-06-01T17:39:22;99666.09;;;21.18;37.98
39699;BME280;25372;50.582;12.250;2023-06-01T17:49:45;99677.53;;;20.54;40.43
39699;BME280;25372;50.582;12.250;2023-06-01T18:00:07;99674.63;;;19.97;41.71
39699;BME280;25372;50.582;12.250;2023-06-01T18:10:32;99668.88;;;19.33;45.01
39699;BME280;25372;50.582;12.250;2023-06-01T18:20:53;99669.94;;;18.95;44.50
39699;BME280;25372;50.582;12.250;2023-06-01T18:31:15;99671.88;;;18.58;46.31
39699;BME280;25372;50.582;12.250;2023-06-01T18:41:36;99671.88;;;18.04;49.21
39699;BME280;25372;50.582;12.250;2023-06-01T18:52:00;99694.28;;;17.64;49.86
39699;BME280;25372;50.582;12.250;2023-06-01T19:02:23;99705.06;;;17.14;51.02
39699;BME280;25372;50.582;12.250;2023-06-01T19:12:45;99702.47;;;16.95;52.14
39699;BME280;25372;50.582;12.250;2023-06-01T19:23:06;99711.41;;;16.74;52.82
39699;BME280;25372;50.582;12.250;2023-06-01T19:33:28;99717.41;;;16.46;54.45
39699;BME280;25372;50.582;12.250;2023-06-01T19:43:49;99721.72;;;16.18;55.96
39699;BME280;25372;50.582;12.250;2023-06-01T19:54:18;99735.09;;;15.85;57.44
39699;BME280;25372;50.582;12.250;2023-06-01T20:04:40;99724.78;;;15.72;56.93
39699;BME280;25372;50.582;12.250;2023-06-01T20:15:01;99740.69;;;15.51;58.48
39699;BME280;25372;50.582;12.250;2023-06-01T20:25:22;99747.34;;;15.45;60.45
39699;BME280;25372;50.582;12.250;2023-06-01T20:35:45;99751.53;;;15.48;60.47
39699;BME280;25372;50.582;12.250;2023-06-01T20:46:06;99753.13;;;15.08;62.41
39699;BME280;25372;50.582;12.250;2023-06-01T20:56:30;99769.34;;;14.82;64.21
39699;BME280;25372;50.582;12.250;2023-06-01T21:06:53;99768.31;;;14.62;65.07
39699;BME280;25372;50.582;12.250;2023-06-01T21:17:15;99781.34;;;14.42;66.01
39699;BME280;25372;50.582;12.250;2023-06-01T21:27:36;99788.34;;;14.09;66.89
39699;BME280;25372;50.582;12.250;2023-06-01T21:37:58;99796.06;;;13.89;68.50
39699;BME280;25372;50.582;12.250;2023-06-01T21:48:21;99789.47;;;13.72;69.17
39699;BME280;25372;50.582;12.250;2023-06-01T21:58:43;99803.22;;;13.53;68.92
39699;BME280;25372;50.582;12.250;2023-06-01T22:09:06;99811.91;;;13.31;71.31
39699;BME280;25372;50.582;12.250;2023-06-01T22:19:27;99818.91;;;13.07;70.77
39699;BME280;25372;50.582;12.250;2023-06-01T22:29:48;99818.81;;;12.84;71.29
39699;BME280;25372;50.582;12.250;2023-06-01T22:40:11;99838.09;;;12.61;71.82
39699;BME280;25372;50.582;12.250;2023-06-01T22:50:32;99849.31;;;12.38;73.21
39699;BME280;25372;50.582;12.250;2023-06-01T23:00:54;99839.63;;;12.52;72.62
39699;BME280;25372;50.582;12.250;2023-06-01T23:11:15;99841.00;;;12.31;73.13
39699;BME280;25372;50.582;12.250;2023-06-01T23:21:38;99847.47;;;12.01;72.61
39699;BME280;25372;50.582;12.250;2023-06-01T23:32:03;99855.88;;;11.94;73.27
39699;BME280;25372;50.582;12.250;2023-06-01T23:42:26;99855.88;;;11.68;73.64
39699;BME280;25372;50.582;12.250;2023-06-01T23:52:46;99856.94;;;11.65;74.80
